createdAt,value
2018-04-23T00:00:45.078Z,28.3
2018-04-23T00:01:35.132Z,28.3
2018-04-23T00:02:24.988Z,28.3
2018-04-23T00:03:14.696Z,28.3
2018-04-23T00:04:05.059Z,28.3
2018-04-23T00:04:55.142Z,28.3
2018-04-23T00:05:45.222Z,28.3
2018-04-23T00:06:35.331Z,28.3
2018-04-23T00:07:25.334Z,28.3
2018-04-23T00:08:15.676Z,28.3
2018-04-23T00:09:05.428Z,28.3
2018-04-23T00:09:55.781Z,28.3
2018-04-23T00:10:45.303Z,28.3
2018-04-23T00:11:35.362Z,28.3
2018-04-23T00:12:25.491Z,28.3
2018-04-23T00:13:15.471Z,28.3
2018-04-23T00:14:06.095Z,28.3
2018-04-23T00:14:55.905Z,28.3
2018-04-23T00:15:45.980Z,28.3
2018-04-23T00:16:35.745Z,28.3
2018-04-23T00:17:26.056Z,28.3
2018-04-23T00:18:16.148Z,28.3
2018-04-23T00:19:05.659Z,28.3
2018-04-23T00:19:56.555Z,28.3
2018-04-23T00:20:46.682Z,28.3
2018-04-23T00:21:36.133Z,28.3
2018-04-23T00:22:26.463Z,28.3
2018-04-23T00:23:16.818Z,28.3
2018-04-23T00:24:06.862Z,28.3
2018-04-23T00:24:56.103Z,28.3
2018-04-23T00:25:46.723Z,28.3
2018-04-23T00:26:36.783Z,28.3
2018-04-23T00:27:26.861Z,28.3
2018-04-23T00:28:17.185Z,28.3
2018-04-23T00:29:07.270Z,28.3
2018-04-23T00:29:57.040Z,28.3
2018-04-23T00:30:47.447Z,28.3
2018-04-23T00:31:36.902Z,28.3
2018-04-23T00:32:26.965Z,28.3
2018-04-23T00:33:17.596Z,28.3
2018-04-23T00:34:07.351Z,28.3
2018-04-23T00:34:57.165Z,28.3
2018-04-23T00:35:47.495Z,28.3
2018-04-23T00:36:37.820Z,28.3
2018-04-23T00:37:27.635Z,28.3
2018-04-23T00:38:17.945Z,28.3
2018-04-23T00:39:07.534Z,28.3
2018-04-23T00:39:57.594Z,28.3
2018-04-23T00:40:48.122Z,28.3
2018-04-23T00:41:38.234Z,28.3
2018-04-23T00:42:27.526Z,28.3
2018-04-23T00:43:18.042Z,28.3
2018-04-23T00:44:07.636Z,28.3
2018-04-23T00:44:57.964Z,28.3
2018-04-23T00:45:48.034Z,28.3
2018-04-23T00:46:37.823Z,28.3
2018-04-23T00:47:28.075Z,28.3
2018-04-23T00:48:17.885Z,28.3
2018-04-23T00:49:08.779Z,28.3
2018-04-23T00:49:58.138Z,28.3
2018-04-23T00:50:48.428Z,28.3
2018-04-23T00:51:38.499Z,28.3
2018-04-23T00:52:28.016Z,28.3
2018-04-23T00:53:18.343Z,28.3
2018-04-23T00:54:08.693Z,28.3
2018-04-23T00:54:58.483Z,28.3
2018-04-23T00:55:48.814Z,28.3
2018-04-23T00:56:38.596Z,28.3
2018-04-23T00:57:29.402Z,28.3
2018-04-23T00:58:18.995Z,28.3
2018-04-23T00:59:09.553Z,28.3
2018-04-23T00:59:59.661Z,28.3
2018-04-23T01:00:49.690Z,28.3
2018-04-23T01:01:39.458Z,28.3
2018-04-23T01:02:29.129Z,28.3
2018-04-23T01:03:19.888Z,28.3
2018-04-23T01:04:09.918Z,28.3
2018-04-23T01:05:00.023Z,28.3
2018-04-23T01:05:50.039Z,28.3
2018-04-23T01:06:40.105Z,28.3
2018-04-23T01:07:29.405Z,28.3
2018-04-23T01:08:20.262Z,28.3
2018-04-23T01:09:10.046Z,28.3
2018-04-23T01:10:00.101Z,28.3
2018-04-23T01:10:49.871Z,28.3
2018-04-23T01:11:39.927Z,28.3
2018-04-23T01:12:30.590Z,28.3
2018-04-23T01:13:20.352Z,28.3
2018-04-23T01:14:10.729Z,28.3
2018-04-23T01:15:00.202Z,28.3
2018-04-23T01:15:50.553Z,28.3
2018-04-23T01:16:40.618Z,28.3
2018-04-23T01:17:31.005Z,28.3
2018-04-23T01:18:21.026Z,28.3
2018-04-23T01:19:10.822Z,28.3
2018-04-23T01:20:01.145Z,28.3
2018-04-23T01:20:51.178Z,28.3
2018-04-23T01:21:40.969Z,28.3
2018-04-23T01:22:31.336Z,28.3
2018-04-23T01:23:21.112Z,28.3
2018-04-23T01:24:11.171Z,28.3
2018-04-23T01:25:01.503Z,28.3
2018-04-23T01:25:50.820Z,28.3
2018-04-23T01:26:41.172Z,28.3
2018-04-23T01:27:31.244Z,28.3
2018-04-23T01:28:21.012Z,28.3
2018-04-23T01:29:11.079Z,28.3
2018-04-23T01:30:01.439Z,28.3
2018-04-23T01:30:51.528Z,28.3
2018-04-23T01:31:41.266Z,28.3
2018-04-23T01:32:31.326Z,28.3
2018-04-23T01:33:21.146Z,28.3
2018-04-23T01:34:12.231Z,28.3
2018-04-23T01:35:01.454Z,28.3
2018-04-23T01:35:52.158Z,28.3
2018-04-23T01:36:42.158Z,28.3
2018-04-23T01:37:32.227Z,28.3
2018-04-23T01:38:22.255Z,28.3
2018-04-23T01:39:12.391Z,28.3
2018-04-23T01:40:02.677Z,28.3
2018-04-23T01:40:52.720Z,28.3
2018-04-23T01:41:42.813Z,28.3
2018-04-23T01:42:32.874Z,28.3
2018-04-23T01:43:22.954Z,28.3
2018-04-23T01:44:12.713Z,28.3
2018-04-23T01:45:02.797Z,28.3
2018-04-23T01:45:53.122Z,28.3
2018-04-23T01:46:43.185Z,28.3
2018-04-23T01:47:32.983Z,28.3
2018-04-23T01:48:23.056Z,28.3
2018-04-23T01:49:13.392Z,28.3
2018-04-23T01:50:03.430Z,28.3
2018-04-23T01:50:53.522Z,28.3
2018-04-23T01:51:43.998Z,28.3
2018-04-23T01:52:33.818Z,28.3
2018-04-23T01:53:23.140Z,28.3
2018-04-23T01:54:13.514Z,28.3
2018-04-23T01:55:03.874Z,28.3
2018-04-23T01:55:53.886Z,28.3
2018-04-23T01:56:43.944Z,28.3
2018-04-23T01:57:33.462Z,28.3
2018-04-23T01:58:24.066Z,28.3
2018-04-23T01:59:14.337Z,28.3
2018-04-23T02:00:03.941Z,28.3
2018-04-23T02:00:54.017Z,28.3
2018-04-23T02:01:44.325Z,28.3
2018-04-23T02:02:33.841Z,28.3
2018-04-23T02:03:23.625Z,28.3
2018-04-23T02:04:13.967Z,28.3
2018-04-23T02:05:04.339Z,28.3
2018-04-23T02:05:54.357Z,28.3
2018-04-23T02:06:44.444Z,28.3
2018-04-23T02:07:34.501Z,28.3
2018-04-23T02:08:24.593Z,28.3
2018-04-23T02:09:14.911Z,28.3
2018-04-23T02:10:04.868Z,28.3
2018-04-23T02:10:54.781Z,28.3
2018-04-23T02:11:44.228Z,28.3
2018-04-23T02:12:34.871Z,28.3
2018-04-23T02:13:25.236Z,28.3
2018-04-23T02:14:15.308Z,28.3
2018-04-23T02:15:05.340Z,28.3
2018-04-23T02:15:54.856Z,28.3
2018-04-23T02:16:45.477Z,28.3
2018-04-23T02:17:35.567Z,28.3
2018-04-23T02:18:25.671Z,28.3
2018-04-23T02:19:15.401Z,28.3
2018-04-23T02:20:05.433Z,28.3
2018-04-23T02:20:55.776Z,28.3
2018-04-23T02:21:45.276Z,28.3
2018-04-23T02:22:35.386Z,28.3
2018-04-23T02:23:25.995Z,28.3
2018-04-23T02:24:16.041Z,28.3
2018-04-23T02:25:05.877Z,28.3
2018-04-23T02:25:56.227Z,28.3
2018-04-23T02:26:45.967Z,28.3
2018-04-23T02:27:36.037Z,28.3
2018-04-23T02:28:26.088Z,28.3
2018-04-23T02:29:16.453Z,28.3
2018-04-23T02:30:06.211Z,28.3
2018-04-23T02:30:56.293Z,28.3
2018-04-23T02:31:46.100Z,28.3
2018-04-23T02:32:36.162Z,28.3
2018-04-23T02:33:26.478Z,28.3
2018-04-23T02:34:16.275Z,28.3
2018-04-23T02:35:06.333Z,28.3
2018-04-23T02:35:56.756Z,28.3
2018-04-23T02:36:46.935Z,28.3
2018-04-23T02:37:36.581Z,28.3
2018-04-23T02:38:27.622Z,28.3
2018-04-23T02:39:16.938Z,28.3
2018-04-23T02:40:07.015Z,28.3
2018-04-23T02:40:57.351Z,28.3
2018-04-23T02:41:47.427Z,28.3
2018-04-23T02:42:37.536Z,28.3
2018-04-23T02:43:26.991Z,28.3
2018-04-23T02:44:17.627Z,28.3
2018-04-23T02:45:07.687Z,28.3
2018-04-23T02:45:57.712Z,28.3
2018-04-23T02:46:47.508Z,28.3
2018-04-23T02:47:37.312Z,28.3
2018-04-23T02:48:27.353Z,28.3
2018-04-23T02:49:17.434Z,28.2
2018-04-23T02:50:07.795Z,28.2
2018-04-23T02:50:58.337Z,28.2
2018-04-23T02:51:48.184Z,28.3
2018-04-23T02:52:37.969Z,28.3
2018-04-23T02:53:27.760Z,28.2
2018-04-23T02:54:18.091Z,28.2
2018-04-23T02:55:07.911Z,28.3
2018-04-23T02:55:58.218Z,28.3
2018-04-23T02:56:48.270Z,28.2
2018-04-23T02:57:38.355Z,28.2
2018-04-23T02:58:28.129Z,28.2
2018-04-23T02:59:18.731Z,28.3
2018-04-23T03:00:08.558Z,28.2
2018-04-23T03:00:57.756Z,28.3
2018-04-23T03:01:48.926Z,28.2
2018-04-23T03:02:39.311Z,28.3
2018-04-23T03:03:28.855Z,28.3
2018-04-23T03:04:19.133Z,28.3
2018-04-23T03:05:08.912Z,28.2
2018-04-23T03:05:58.980Z,28.3
2018-04-23T03:06:49.029Z,28.2
2018-04-23T03:07:39.391Z,28.2
2018-04-23T03:08:29.448Z,28.1
2018-04-23T03:09:19.508Z,28.1
2018-04-23T03:10:09.316Z,28
2018-04-23T03:10:59.074Z,28
2018-04-23T03:11:49.393Z,27.9
2018-04-23T03:13:29.546Z,27.8
2018-04-23T03:14:19.615Z,27.7
2018-04-23T03:15:09.670Z,27.6
2018-04-23T03:16:00.056Z,27.5
2018-04-23T03:16:49.798Z,27.4
2018-04-23T03:17:40.135Z,27.4
2018-04-23T03:18:29.946Z,27.4
2018-04-23T03:19:20.256Z,27.3
2018-04-23T03:20:10.779Z,27.3
2018-04-23T03:21:00.104Z,27.2
2018-04-23T03:21:50.461Z,27.2
2018-04-23T03:22:40.248Z,27.2
2018-04-23T03:23:30.316Z,27.1
2018-04-23T03:24:20.102Z,27.1
2018-04-23T03:25:10.448Z,27.1
2018-04-23T03:26:00.884Z,27.1
2018-04-23T03:26:50.279Z,27.1
2018-04-23T03:27:40.636Z,27.1
2018-04-23T03:28:30.978Z,27.1
2018-04-23T03:29:21.037Z,27.1
2018-04-23T03:30:11.106Z,27
2018-04-23T03:31:01.192Z,27
2018-04-23T03:31:50.963Z,27
2018-04-23T03:32:41.020Z,27
2018-04-23T03:33:31.333Z,27
2018-04-23T03:34:21.386Z,26.9
2018-04-23T03:35:11.178Z,26.9
2018-04-23T03:36:01.544Z,26.9
2018-04-23T03:36:51.333Z,26.9
2018-04-23T03:37:41.493Z,26.9
2018-04-23T03:38:31.722Z,26.9
2018-04-23T03:39:21.815Z,26.9
2018-04-23T03:40:11.583Z,26.9
2018-04-23T03:41:01.936Z,26.9
2018-04-23T03:41:51.992Z,26.9
2018-04-23T03:42:42.110Z,26.9
2018-04-23T03:43:31.552Z,26.9
2018-04-23T03:44:22.222Z,26.9
2018-04-23T03:45:11.681Z,26.9
2018-04-23T03:46:02.055Z,26.9
2018-04-23T03:46:52.102Z,26.9
2018-04-23T03:47:42.166Z,26.9
2018-04-23T03:48:32.506Z,26.9
2018-04-23T03:49:22.266Z,26.9
2018-04-23T03:50:12.348Z,26.9
2018-04-23T03:51:02.668Z,26.9
2018-04-23T03:51:52.476Z,26.9
2018-04-23T03:52:42.798Z,26.9
2018-04-23T03:53:32.305Z,26.9
2018-04-23T03:54:22.644Z,26.9
2018-04-23T03:55:13.003Z,26.9
2018-04-23T03:56:03.099Z,26.8
2018-04-23T03:56:53.119Z,26.9
2018-04-23T03:57:43.117Z,26.9
2018-04-23T03:58:32.733Z,26.9
2018-04-23T03:59:23.317Z,26.8
2018-04-23T04:00:13.391Z,26.8
2018-04-23T04:01:03.198Z,26.9
2018-04-23T04:01:52.995Z,26.8
2018-04-23T04:02:43.287Z,26.8
2018-04-23T04:03:33.386Z,26.8
2018-04-23T04:04:23.706Z,26.8
2018-04-23T04:05:13.801Z,26.8
2018-04-23T04:06:03.315Z,26.9
2018-04-23T04:06:53.892Z,26.8
2018-04-23T04:07:43.374Z,26.9
2018-04-23T04:08:34.021Z,26.8
2018-04-23T04:09:23.930Z,26.8
2018-04-23T04:10:14.179Z,26.8
2018-04-23T04:11:03.941Z,26.8
2018-04-23T04:11:53.726Z,26.8
2018-04-23T04:12:44.079Z,26.8
2018-04-23T04:13:33.860Z,26.8
2018-04-23T04:14:23.922Z,26.8
2018-04-23T04:15:14.241Z,26.8
2018-04-23T04:16:04.687Z,26.8
2018-04-23T04:16:54.574Z,26.8
2018-04-23T04:17:44.742Z,26.8
2018-04-23T04:18:34.788Z,26.8
2018-04-23T04:19:24.883Z,26.8
2018-04-23T04:20:14.352Z,26.7
2018-04-23T04:21:04.712Z,26.6
2018-04-23T04:21:54.780Z,26.5
2018-04-23T04:22:45.118Z,26.4
2018-04-23T04:23:34.910Z,26.4
2018-04-23T04:24:24.977Z,26.3
2018-04-23T04:25:15.323Z,26.3
2018-04-23T04:26:05.376Z,26.2
2018-04-23T04:26:55.177Z,26.2
2018-04-23T04:27:44.648Z,26.1
2018-04-23T04:28:35.577Z,26.1
2018-04-23T04:29:25.370Z,26.1
2018-04-23T04:30:15.409Z,26
2018-04-23T04:31:05.204Z,26
2018-04-23T04:31:55.804Z,26
2018-04-23T04:32:45.878Z,26
2018-04-23T04:33:35.675Z,26
2018-04-23T04:34:26.006Z,26
2018-04-23T04:35:16.043Z,25.9
2018-04-23T04:36:05.842Z,25.9
2018-04-23T04:36:55.916Z,25.9
2018-04-23T04:37:46.008Z,25.9
2018-04-23T04:38:36.036Z,25.9
2018-04-23T04:39:26.381Z,25.9
2018-04-23T04:40:16.192Z,25.8
2018-04-23T04:41:06.268Z,25.8
2018-04-23T04:41:56.607Z,25.8
2018-04-23T04:42:46.721Z,25.8
2018-04-23T04:43:36.457Z,25.8
2018-04-23T04:44:26.806Z,25.8
2018-04-23T04:45:16.274Z,25.8
2018-04-23T04:46:06.957Z,25.8
2018-04-23T04:46:57.040Z,25.8
2018-04-23T04:47:46.812Z,25.8
2018-04-23T04:48:37.126Z,25.8
2018-04-23T04:49:27.194Z,25.8
2018-04-23T04:50:17.269Z,25.8
2018-04-23T04:51:07.295Z,25.8
2018-04-23T04:51:57.396Z,25.8
2018-04-23T04:52:46.841Z,25.8
2018-04-23T04:53:36.983Z,25.8
2018-04-23T04:54:27.305Z,25.8
2018-04-23T04:55:17.046Z,25.8
2018-04-23T04:56:07.397Z,25.8
2018-04-23T04:56:57.441Z,25.8
2018-04-23T04:57:46.931Z,25.8
2018-04-23T04:58:37.831Z,25.8
2018-04-23T04:59:27.920Z,25.8
2018-04-23T05:00:17.976Z,25.8
2018-04-23T05:01:07.498Z,25.8
2018-04-23T05:01:57.558Z,25.8
2018-04-23T05:02:48.190Z,25.8
2018-04-23T07:13:33.361Z,52.4
2018-04-23T07:14:23.671Z,52.6
2018-04-23T07:15:13.773Z,52.7
2018-04-23T07:16:03.817Z,52.8
2018-04-23T07:16:53.354Z,52.9
2018-04-23T07:17:43.631Z,53.1
2018-04-23T07:18:34.064Z,53.2
2018-04-23T07:19:23.777Z,53.3
2018-04-23T07:20:14.122Z,53.5
2018-04-23T07:21:03.634Z,53.6
2018-04-23T07:21:53.968Z,53.8
2018-04-23T07:22:44.038Z,53.9
2018-04-23T07:23:34.414Z,54.1
2018-04-23T07:24:24.438Z,54.2
2018-04-23T07:25:14.262Z,54.4
2018-04-23T07:26:04.015Z,54.5
2018-04-23T07:26:54.342Z,54.7
2018-04-23T07:27:44.437Z,54.8
2018-04-23T07:28:34.254Z,54.9
2018-04-23T07:29:25.070Z,55.1
2018-04-23T07:30:14.409Z,55.3
2018-04-23T07:31:04.994Z,55.4
2018-04-23T07:31:53.513Z,55.6
2018-04-23T07:32:45.088Z,55.7
2018-04-23T07:33:34.377Z,55.9
2018-04-23T07:34:25.215Z,56
2018-04-23T07:35:15.013Z,56.1
2018-04-23T07:36:04.877Z,56.3
2018-04-23T07:36:54.879Z,56.4
2018-04-23T07:37:44.714Z,56.6
2018-04-23T07:38:35.541Z,56.8
2018-04-23T07:39:25.435Z,56.9
2018-04-23T07:40:15.682Z,57
2018-04-23T07:41:05.728Z,57.1
2018-04-23T07:41:55.261Z,57.3
2018-04-23T07:42:45.300Z,57.5
2018-04-23T07:43:35.656Z,57.6
2018-04-23T07:44:25.705Z,57.7
2018-04-23T07:45:15.499Z,57.9
2018-04-23T07:46:05.566Z,58
2018-04-23T07:46:56.174Z,58.2
2018-04-23T07:47:46.002Z,58.3
2018-04-23T07:48:35.751Z,58.4
2018-04-23T07:50:16.207Z,58.8
2018-04-23T07:51:06.278Z,58.9
2018-04-23T07:51:56.024Z,59
2018-04-23T07:52:46.663Z,59.1
2018-04-23T07:53:36.455Z,59.3
2018-04-23T07:54:26.243Z,59.4
2018-04-23T07:55:16.568Z,59.6
2018-04-23T07:56:06.358Z,59.8
2018-04-23T07:56:57.034Z,59.9
2018-04-23T07:57:46.776Z,60.1
2018-04-23T07:58:37.084Z,60.2
2018-04-23T07:59:27.186Z,60.3
2018-04-23T08:00:16.696Z,60.4
2018-04-23T08:01:06.775Z,60.6
2018-04-23T08:01:57.377Z,60.8
2018-04-23T08:02:46.605Z,60.9
2018-04-23T08:03:37.208Z,61
2018-04-23T08:04:27.025Z,61.2
2018-04-23T08:05:17.366Z,61.3
2018-04-23T08:06:07.464Z,61.4
2018-04-23T08:06:57.909Z,61.6
2018-04-23T08:07:47.528Z,61.7
2018-04-23T08:08:37.920Z,61.8
2018-04-23T08:09:27.948Z,61.9
2018-04-23T08:10:17.990Z,62.1
2018-04-23T08:11:07.320Z,62.2
2018-04-23T08:11:57.891Z,62.3
2018-04-23T08:12:48.200Z,62.4
2018-04-23T08:13:37.421Z,62.6
2018-04-23T08:14:27.203Z,62.7
2018-04-23T08:15:18.125Z,62.9
2018-04-23T08:16:07.752Z,62.9
2018-04-23T08:16:57.979Z,63.1
2018-04-23T08:17:48.024Z,63.2
2018-04-23T08:18:37.137Z,63.3
2018-04-23T08:19:28.242Z,63.4
2018-04-23T08:20:17.784Z,63.5
2018-04-23T08:21:08.576Z,63.6
2018-04-23T08:21:58.672Z,63.8
2018-04-23T08:22:48.731Z,63.9
2018-04-23T08:23:39.126Z,64
2018-04-23T08:24:29.154Z,64.1
2018-04-23T08:25:17.886Z,64.2
2018-04-23T08:26:08.695Z,64.3
2018-04-23T08:26:58.761Z,64.4
2018-04-23T08:27:48.866Z,64.6
2018-04-23T08:28:39.444Z,64.7
2018-04-23T08:29:29.306Z,64.8
2018-04-23T08:30:19.598Z,64.8
2018-04-23T08:31:09.706Z,64.9
2018-04-23T08:31:59.759Z,65.1
2018-04-23T08:32:49.483Z,65.2
2018-04-23T08:33:38.993Z,65.2
2018-04-23T08:34:29.621Z,65.3
2018-04-23T08:35:19.970Z,65.4
2018-04-23T08:36:08.930Z,65.4
2018-04-23T08:36:59.824Z,65.6
2018-04-23T08:37:49.603Z,65.6
2018-04-23T08:38:39.952Z,65.8
2018-04-23T08:39:29.741Z,65.9
2018-04-23T08:40:19.545Z,66
2018-04-23T08:41:10.436Z,66
2018-04-23T08:42:00.499Z,66.1
2018-04-23T08:42:50.571Z,66.3
2018-04-23T08:43:40.661Z,66.3
2018-04-23T08:44:30.668Z,66.4
2018-04-23T08:45:20.718Z,66.5
2018-04-23T08:46:10.523Z,66.6
2018-04-23T08:47:00.594Z,66.6
2018-04-23T08:47:50.664Z,66.8
2018-04-23T08:48:40.721Z,66.8
2018-04-23T08:49:31.084Z,66.9
2018-04-23T08:50:21.267Z,67
2018-04-23T08:51:10.907Z,67.1
2018-04-23T08:52:01.265Z,67.1
2018-04-23T08:52:51.357Z,67.3
2018-04-23T08:53:41.157Z,67.3
2018-04-23T08:54:31.458Z,67.4
2018-04-23T08:55:21.283Z,67.6
2018-04-23T08:56:11.334Z,67.6
2018-04-23T08:57:01.133Z,67.7
2018-04-23T08:57:51.727Z,67.8
2018-04-23T08:58:41.520Z,67.8
2018-04-23T08:59:31.355Z,67.9
2018-04-23T09:00:22.136Z,68
2018-04-23T09:01:12.019Z,68.1
2018-04-23T09:02:01.813Z,68.1
2018-04-23T09:02:51.576Z,68.3
2018-04-23T09:03:42.206Z,68.3
2018-04-23T09:04:32.012Z,68.4
2018-04-23T09:05:22.069Z,68.5
2018-04-23T09:06:11.588Z,68.6
2018-04-23T09:07:01.607Z,68.7
2018-04-23T09:07:52.274Z,68.8
2018-04-23T09:08:42.624Z,68.8
2018-04-23T09:09:32.415Z,68.9
2018-04-23T09:10:22.469Z,69
2018-04-23T09:11:12.789Z,69.1
2018-04-23T09:12:02.886Z,69.2
2018-04-23T09:12:52.366Z,69.3
2018-04-23T09:13:42.152Z,69.3
2018-04-23T09:14:33.111Z,69.4
2018-04-23T09:15:23.139Z,69.5
2018-04-23T09:16:12.938Z,69.6
2018-04-23T09:17:02.681Z,69.8
2018-04-23T09:17:53.924Z,69.8
2018-04-23T09:18:43.077Z,69.8
2018-04-23T09:19:33.200Z,69.9
2018-04-23T09:20:22.103Z,70
2018-04-23T09:21:13.299Z,70
2018-04-23T09:22:03.103Z,70.1
2018-04-23T09:22:53.456Z,70.3
2018-04-23T09:23:43.268Z,70.3
2018-04-23T09:24:33.851Z,70.4
2018-04-23T09:25:23.663Z,70.5
2018-04-23T09:26:14.015Z,70.6
2018-04-23T09:27:03.504Z,70.6
2018-04-23T09:27:53.569Z,70.7
2018-04-23T09:28:43.902Z,70.8
2018-04-23T09:29:34.040Z,70.9
2018-04-23T09:30:24.329Z,71
2018-04-23T09:31:14.349Z,71.1
2018-04-23T09:32:03.601Z,71.1
2018-04-23T09:32:53.395Z,71.2
2018-04-23T09:33:43.700Z,71.3
2018-04-23T09:34:34.609Z,71.3
2018-04-23T09:35:24.154Z,71.4
2018-04-23T09:36:14.473Z,71.5
2018-04-23T09:37:04.338Z,71.6
2018-04-23T09:37:54.576Z,71.7
2018-04-23T09:38:44.658Z,71.8
2018-04-23T09:39:34.461Z,71.8
2018-04-23T09:40:23.931Z,71.9
2018-04-23T09:41:14.862Z,71.9
2018-04-23T09:42:04.909Z,72
2018-04-23T09:42:55.253Z,72.1
2018-04-23T09:43:45.044Z,72.2
2018-04-23T09:44:35.644Z,72.3
2018-04-23T09:45:25.213Z,72.3
2018-04-23T09:46:15.043Z,72.4
2018-04-23T09:47:05.353Z,72.5
2018-04-23T09:47:55.110Z,72.6
2018-04-23T09:48:45.173Z,72.6
2018-04-23T09:49:35.533Z,72.7
2018-04-23T09:50:25.860Z,72.8
2018-04-23T09:51:15.191Z,72.9
2018-04-23T09:52:06.044Z,72.9
2018-04-23T09:52:55.797Z,73
2018-04-23T09:53:45.876Z,73.1
2018-04-23T09:54:36.243Z,73.1
2018-04-23T09:55:25.201Z,73.2
2018-04-23T09:56:15.843Z,73.3
2018-04-23T09:57:06.390Z,73.4
2018-04-23T09:57:56.179Z,73.4
2018-04-23T09:58:46.490Z,73.6
2018-04-23T09:59:35.303Z,73.6
2018-04-23T10:00:26.649Z,73.7
2018-04-23T10:01:16.696Z,73.8
2018-04-23T10:02:06.824Z,73.9
2018-04-23T10:02:56.855Z,74
2018-04-23T10:03:46.338Z,74.1
2018-04-23T10:04:36.436Z,74.1
2018-04-23T10:05:26.770Z,74.2
2018-04-23T10:06:16.866Z,74.3
2018-04-23T10:07:06.931Z,73.6
2018-04-23T10:07:56.971Z,72.1
2018-04-23T10:08:47.298Z,70.7
2018-04-23T10:09:37.396Z,71.3
2018-04-23T10:10:27.409Z,72.9
2018-04-23T10:11:17.221Z,74.6
2018-04-23T10:12:07.785Z,75.3
2018-04-23T10:12:57.339Z,75.4
2018-04-23T10:13:47.404Z,75.1
2018-04-23T10:14:37.764Z,74.9
2018-04-23T10:15:27.064Z,74.9
2018-04-23T10:16:17.334Z,75.1
2018-04-23T10:17:07.952Z,75.3
2018-04-23T10:17:57.450Z,75.3
2018-04-23T10:18:48.069Z,75.4
2018-04-23T10:19:37.304Z,75.4
2018-04-23T10:20:28.218Z,75.5
2018-04-23T10:21:18.266Z,75.6
2018-04-23T10:22:07.803Z,75.6
2018-04-23T10:22:58.411Z,75.7
2018-04-23T10:23:48.248Z,75.8
2018-04-23T10:24:37.718Z,75.9
2018-04-23T10:25:28.123Z,75.9
2018-04-23T10:26:18.665Z,76
2018-04-23T10:27:08.710Z,76.1
2018-04-23T10:27:58.529Z,76.1
2018-04-23T10:28:48.299Z,76.2
2018-04-23T10:29:38.695Z,76.3
2018-04-23T10:30:29.034Z,76.4
2018-04-23T10:31:18.791Z,76.4
2018-04-23T10:32:08.589Z,76.5
2018-04-23T10:32:59.069Z,76.6
2018-04-23T10:33:49.319Z,76.6
2018-04-23T10:34:38.781Z,76.7
2018-04-23T10:35:29.399Z,76.8
2018-04-23T10:36:19.468Z,76.9
2018-04-23T10:37:09.243Z,76.9
2018-04-23T10:37:59.321Z,76.9
2018-04-23T10:38:49.102Z,77
2018-04-23T10:39:39.726Z,77.1
2018-04-23T10:40:29.222Z,77.2
2018-04-23T10:41:19.566Z,77.2
2018-04-23T10:42:09.911Z,77.3
2018-04-23T10:42:59.976Z,77.3
2018-04-23T10:43:49.753Z,77.4
2018-04-23T10:44:39.559Z,77.4
2018-04-23T10:45:30.553Z,77.5
2018-04-23T10:46:19.411Z,77.5
2018-04-23T10:47:10.290Z,77.6
2018-04-23T10:48:00.379Z,77.6
2018-04-23T10:48:50.483Z,77.7
2018-04-23T10:49:39.937Z,77.8
2018-04-23T10:50:30.306Z,77.8
2018-04-23T10:51:20.363Z,77.8
2018-04-23T10:52:09.839Z,77.9
2018-04-23T10:53:00.515Z,77.9
2018-04-23T10:53:50.806Z,78.1
2018-04-23T10:54:40.637Z,78.1
2018-04-23T10:55:30.719Z,78.2
2018-04-23T10:56:20.731Z,78.2
2018-04-23T10:57:10.358Z,78.3
2018-04-23T10:58:00.866Z,78.3
2018-04-23T10:58:51.233Z,78.4
2018-04-23T10:59:41.034Z,78.4
2018-04-23T11:00:31.070Z,78.5
2018-04-23T11:01:20.871Z,78.6
2018-04-23T11:02:11.200Z,78.6
2018-04-23T11:03:00.786Z,78.6
2018-04-23T11:03:50.583Z,78.7
2018-04-23T11:04:40.299Z,78.8
2018-04-23T11:05:31.474Z,78.8
2018-04-23T11:06:21.497Z,78.8
2018-04-23T11:07:11.897Z,78.9
2018-04-23T11:08:01.427Z,78.9
2018-04-23T11:08:51.747Z,79
2018-04-23T11:09:41.955Z,79.1
2018-04-23T11:10:32.113Z,79.1
2018-04-23T11:11:22.200Z,79.1
2018-04-23T11:12:12.271Z,79.2
2018-04-23T11:13:00.826Z,79.3
2018-04-23T11:13:52.101Z,79.3
2018-04-23T11:14:41.922Z,79.3
2018-04-23T11:15:31.996Z,79.4
2018-04-23T11:16:22.590Z,79.4
2018-04-23T11:17:11.841Z,79.4
2018-04-23T11:18:02.449Z,79.6
2018-04-23T11:18:52.248Z,79.6
2018-04-23T11:19:42.603Z,79.7
2018-04-23T11:20:32.677Z,79.7
2018-04-23T11:21:22.455Z,79.7
2018-04-23T11:22:12.789Z,79.8
2018-04-23T11:23:02.308Z,79.8
2018-04-23T11:23:52.631Z,79.8
2018-04-23T11:24:43.100Z,79.9
2018-04-23T11:25:32.578Z,79.9
2018-04-23T11:26:23.401Z,79.9
2018-04-23T11:27:12.636Z,80.1
2018-04-23T11:28:02.972Z,80.1
2018-04-23T11:28:53.589Z,80.1
2018-04-23T11:29:42.819Z,80.1
2018-04-23T11:31:23.511Z,80.3
2018-04-23T11:32:13.325Z,80.3
2018-04-23T11:33:03.670Z,80.3
2018-04-23T11:33:54.020Z,80.3
2018-04-23T11:34:43.777Z,80.4
2018-04-23T11:35:34.135Z,80.4
2018-04-23T11:36:24.188Z,80.4
2018-04-23T11:38:03.790Z,80.1
2018-04-23T11:38:53.640Z,80
2018-04-23T11:39:43.928Z,80
2018-04-23T11:40:33.672Z,80.1
2018-04-23T11:41:24.318Z,80.1
2018-04-23T11:42:14.373Z,80.1
2018-04-23T11:43:03.929Z,80.1
2018-04-23T11:45:34.899Z,80.3
2018-04-23T11:46:24.164Z,80.3
2018-04-23T11:47:15.088Z,80.3
2018-04-23T11:48:05.091Z,80.3
2018-04-23T11:48:55.212Z,80.4
2018-04-23T11:49:44.653Z,80.4
2018-04-23T11:50:35.320Z,80.5
2018-04-23T11:51:24.800Z,80.6
2018-04-23T11:52:14.615Z,80.6
2018-04-23T11:53:05.914Z,80.6
2018-04-23T11:53:55.323Z,80.6
2018-04-23T11:54:44.804Z,80.7
2018-04-23T11:55:35.693Z,80.8
2018-04-23T11:56:25.220Z,80.8
2018-04-23T11:57:15.831Z,80.8
2018-04-23T11:58:05.644Z,80.8
2018-04-23T11:58:55.716Z,80.9
2018-04-23T11:59:45.360Z,80.9
2018-04-23T12:00:35.808Z,80.8
2018-04-23T12:01:25.911Z,80.8
2018-04-23T12:02:16.190Z,80.8
2018-04-23T12:03:06.340Z,80.9
2018-04-23T12:03:56.053Z,80.9
2018-04-23T12:04:46.424Z,80.9
2018-04-23T12:05:36.474Z,81
2018-04-23T12:06:25.417Z,81
2018-04-23T12:07:16.328Z,81.1
2018-04-23T12:08:05.555Z,81.1
2018-04-23T12:08:55.616Z,81.1
2018-04-23T12:09:46.042Z,81.1
2018-04-23T12:10:36.030Z,81.1
2018-04-23T12:11:26.680Z,81.1
2018-04-23T12:12:16.574Z,81.1
2018-04-23T12:13:06.072Z,81.2
2018-04-23T12:13:55.461Z,81.2
2018-04-23T12:14:46.658Z,81.2
2018-04-23T12:15:36.716Z,81.2
2018-04-23T12:16:27.310Z,81.2
2018-04-23T12:17:17.407Z,81.2
2018-04-23T12:18:06.899Z,81.3
2018-04-23T12:18:57.212Z,81.3
2018-04-23T12:19:47.324Z,81.3
2018-04-23T12:20:36.539Z,81.3
2018-04-23T12:21:27.444Z,81.3
2018-04-23T12:22:17.250Z,81.3
2018-04-23T12:23:07.327Z,81.3
2018-04-23T12:23:57.615Z,81.3
2018-04-23T12:24:47.162Z,81.3
2018-04-23T12:25:38.034Z,81.3
2018-04-23T12:26:28.093Z,81.3
2018-04-23T12:27:18.204Z,81.3
2018-04-23T12:28:07.949Z,81.3
2018-04-23T12:28:58.329Z,81.3
2018-04-23T12:29:48.084Z,81.3
2018-04-23T12:30:38.449Z,81.3
2018-04-23T12:31:28.511Z,81.3
2018-04-23T12:32:18.328Z,81.3
2018-04-23T12:33:08.416Z,81.3
2018-04-23T12:33:58.766Z,81.3
2018-04-23T12:34:48.549Z,81.3
2018-04-23T12:35:38.620Z,81.3
2018-04-23T12:36:28.679Z,81.3
2018-04-23T12:37:18.724Z,81.3
2018-04-23T12:38:09.156Z,81.3
2018-04-23T12:38:58.547Z,81.3
2018-04-23T12:39:48.917Z,81.3
2018-04-23T12:40:39.282Z,81.2
2018-04-23T12:41:29.343Z,81.2
2018-04-23T12:42:18.847Z,81.2
2018-04-23T12:43:09.171Z,81.2
2018-04-23T12:43:59.231Z,81.1
2018-04-23T12:45:03.684Z,81.1
2018-04-23T12:45:39.672Z,81.1
2018-04-23T12:46:28.603Z,81.1
2018-04-23T12:47:19.753Z,81.1
2018-04-23T12:48:09.552Z,81.1
2018-04-23T12:48:59.893Z,81
2018-04-23T12:49:49.160Z,81
2018-04-23T12:50:39.462Z,80.9
2018-04-23T12:51:30.095Z,80.9
2018-04-23T12:52:19.908Z,80.9
2018-04-23T12:53:10.215Z,80.8
2018-04-23T12:53:59.427Z,80.8
2018-04-23T12:54:50.371Z,80.8
2018-04-23T12:55:40.396Z,80.8
2018-04-23T12:56:29.951Z,80.8
2018-04-23T12:57:19.973Z,80.8
2018-04-23T12:58:10.332Z,80.8
2018-04-23T12:59:00.686Z,80.8
2018-04-23T12:59:50.470Z,80.8
2018-04-23T13:00:40.824Z,80.7
2018-04-23T13:01:30.882Z,80.7
2018-04-23T13:02:20.383Z,80.7
2018-04-23T13:03:10.754Z,80.6
2018-04-23T13:04:01.080Z,80.6
2018-04-23T13:04:51.146Z,80.6
2018-04-23T13:05:40.932Z,80.6
2018-04-23T13:06:31.275Z,80.6
2018-04-23T13:07:21.345Z,80.6
2018-04-23T13:08:11.135Z,80.6
2018-04-23T13:09:00.355Z,80.5
2018-04-23T13:09:50.699Z,80.5
2018-04-23T13:10:41.039Z,80.4
2018-04-23T13:11:31.134Z,80.4
2018-04-23T13:12:22.288Z,80.4
2018-04-23T13:13:11.238Z,80.4
2018-04-23T13:14:01.321Z,80.4
2018-04-23T13:14:51.655Z,80.3
2018-04-23T13:15:40.874Z,80.3
2018-04-23T13:16:32.072Z,80.3
2018-04-23T13:17:21.920Z,80.3
2018-04-23T13:19:02.298Z,80.1
2018-04-23T13:19:52.036Z,80.1
2018-04-23T13:20:42.378Z,80.1
2018-04-23T13:21:32.510Z,80.1
2018-04-23T13:22:21.413Z,80
2018-04-23T13:23:12.296Z,79.9
2018-04-23T13:24:02.730Z,79.9
2018-04-23T13:24:52.705Z,79.8